Share

Altnaharra, United Kingdom

5:39 PM BST on April 24, 2014 (GMT +0100)
ISUTHERL3 Elev 436 ft | 58.08 °N, 4.44 °W | Change Station

Current weather conditions updated 3 seconds ago

Fog
Fog
51.6 °F
Feels Like 51.6 °F
N
5.4
Wind Variable Wind from North
Gusts 5.4 mph
Sunrise 5:42 AM
Sunset 8:50 PM
Moon Waning Crescent

Tomorrow is forecast to be Much Cooler than today. Chance of showers tomorrow night.

Pressure 30.12 in
Visibility 0.6 miles
Clouds Mostly Cloudy 100 ft
Dew Point 46 °F
Humidity 82%
Rainfall 0.07 in
Snow Depth Not available.
UV 1 out of 16
Pollen Not available.
Air Quality Not available.
Flu Activity Not available.
METAR EGPC 241620Z 12012KT 0900 FG SCT000 BKN001 09/09 Q1020

More Conditions Fewer Conditions

Pressure 30.12 in
Visibility 0.6 miles
Clouds Mostly Cloudy 100 ft
Dew Point 46 °F
Humidity 82%
Rainfall 0.07 in
Snow Depth Not available.
UV 1 out of 16
Pollen Not available.
Air Quality Not available.
Flu Activity Not available.
METAR EGPC 241620Z 12012KT 0900 FG SCT000 BKN001 09/09 Q1020

More Conditions Fewer Conditions

10-Day Weather Forecast

Almanac

Astronomy

Apr. 24, 2014 Rise Set
Actual Time 5:42 AM BST 8:50 PM BST
Civil Twilight 4:56 AM BST 9:37 PM BST
Nautical Twilight 3:53 AM BST 10:41 PM BST
Astronomical Twilight 2:12 AM BST 12:29 AM BST
Moon 3:55 AM BST 2:44 PM BST
Length of Visible Light 16h 40m
Length of Day
15h 08m
Tomorrow will be 4m 54s longer.
Waning Crescent, 24% of the Moon is Illuminated
Today
Waning Crescent
Apr 29
New
May 6
First Quarter
May 14
Full
May 21
Last Quarter

Today's Extremes

Country Highs Country Lows

Community

  • Sunset at Apalachicola Bay, Florida
    Sunset at Apalachicola Bay, Florida
  • Clouds mov'n in
    Clouds mov'n in
  • Stacked
    Stacked
  • clouds approaching Red Sox Nation
    clouds approaching Red Sox Nation
  • Balance
    Balance

WunderPhotos

Upload Photos

1,704,660 photos uploaded!

Nearby

Snow Depth

Not available.

Coastal Water Temperatures

Place Temperature
No Stations Reporting

Earthquake Activity

City Distance Mag. Time & Date
No recent earthquake activity has been reported nearby.
Minimum magnitude displayed is 2.5.

Nearby Weather Stations

Station Location Temp. Dew Point Humidity Wind Precip. Elev Updated Type
Shinness 51.6 °F 46 °F 82% North  at  5.4 mph 0.02 in / hr 436 ft 5:39 PM BST Rapid Fire
Kinbrace 59.4 °F 46 °F 60% SE  at  5.8 mph 0.00 in / hr 364 ft 5:39 PM BST Rapid Fire
Little Rogart 55.6 °F 43 °F 62% North  at  0.0 mph 0.00 in / hr 358 ft 5:39 PM BST Rapid Fire
Inchnadamph Hotel, Elphin 56.1 °F 48 °F 75% WNW  at  1.0 mph 0.00 in / hr 253 ft 5:35 PM BST Normal
Sutherland, Strathy 54.9 °F 47 °F 75% NNE  at  8.0 mph 0.00 in / hr 100 ft 5:30 PM BST Normal

Show More Stations Show Fewer Stations

What do you think?

We're not finished. Please let us know what you like, what you don't like, and what you are still missing.